Time;durP1;ratioP1;P1;durP2;ratioP2;P2;SDS_P1;SDS_P2;PMS_P1;PMS_P2;Temp;Humidity;BMP_temperature;BMP_pressure;BME280_temperature;BME280_humidity;BME280_pressure;Samples;Min_cycle;Max_cycle;Signal;HPM_P1;HPM_P2
2021/12/02 00:03:57;;;;;;;4.63;1.40;;;;;;;5.72;93.04;98032.28;8391428;28;20036;-81
2021/12/02 00:07:57;;;;;;;5.32;1.67;;;;;;;5.69;93.64;98037.44;8351414;28;20049;-81
2021/12/02 00:11:58;;;;;;;5.25;1.40;;;;;;;5.69;93.77;98040.19;8355430;28;20044;-81
2021/12/02 00:16:16;;;;;;;7.97;1.75;;;;;;;5.59;93.23;98034.63;8356609;28;20558;-81
2021/12/02 00:24:40;;;;;;;3.47;1.33;;;;;;;5.65;93.14;98034.41;8367693;28;20051;-81
2021/12/02 00:28:40;;;;;;;3.75;1.75;;;;;;;5.64;93.36;98042.84;8378498;28;20040;-80
2021/12/02 00:32:42;;;;;;;3.72;1.50;;;;;;;5.65;93.71;98044.50;8370137;28;20047;-81
2021/12/02 00:36:43;;;;;;;6.75;1.60;;;;;;;5.67;94.04;98045.06;8346149;28;20032;-82
2021/12/02 00:40:44;;;;;;;4.22;1.48;;;;;;;5.66;93.76;98044.25;8376614;28;20045;-81
2021/12/02 00:44:45;;;;;;;6.97;1.77;;;;;;;5.66;94.32;98046.97;8343920;28;20122;-81
2021/12/02 00:48:46;;;;;;;3.60;1.42;;;;;;;5.69;94.21;98053.84;8366235;28;20036;-81
2021/12/02 00:52:49;;;;;;;4.03;1.70;;;;;;;5.63;94.21;98047.50;8343821;28;20055;-80
2021/12/02 00:56:51;;;;;;;6.00;1.65;;;;;;;5.61;94.90;98046.94;8378217;28;20056;-81
2021/12/02 01:00:53;;;;;;;6.70;2.47;;;;;;;5.56;94.76;98054.25;8378438;28;20045;-81
2021/12/02 01:04:53;;;;;;;5.43;3.17;;;;;;;5.56;95.12;98062.47;8392600;28;20043;-81
2021/12/02 01:08:54;;;;;;;5.80;2.10;;;;;;;5.57;95.17;98055.94;8357812;28;20057;-81
2021/12/02 01:12:56;;;;;;;4.13;1.42;;;;;;;5.54;95.43;98065.47;8384982;28;20041;-81
2021/12/02 01:16:57;;;;;;;4.45;1.63;;;;;;;5.52;95.50;98066.81;8369477;28;20068;-81
2021/12/02 01:20:58;;;;;;;4.97;2.10;;;;;;;5.54;96.10;98070.09;8383083;28;20048;-82
2021/12/02 01:24:59;;;;;;;5.32;1.60;;;;;;;5.54;95.99;98067.38;8363728;28;20516;-82
2021/12/02 01:29:01;;;;;;;6.97;1.92;;;;;;;5.46;97.26;98077.69;8369110;28;20040;-82
2021/12/02 01:33:04;;;;;;;5.72;1.90;;;;;;;5.42;98.22;98073.00;8355564;28;20040;-81
2021/12/02 01:37:09;;;;;;;6.05;2.10;;;;;;;5.41;98.21;98069.47;8382649;28;20048;-81
2021/12/02 01:41:10;;;;;;;7.97;2.13;;;;;;;5.42;99.17;98075.75;8364768;28;20489;-81
2021/12/02 01:45:15;;;;;;;6.78;2.15;;;;;;;5.36;98.61;98074.88;8391555;28;20044;-82
2021/12/02 01:49:17;;;;;;;4.55;2.05;;;;;;;5.35;98.99;98075.94;8363526;28;20052;-82
2021/12/02 01:53:19;;;;;;;4.55;2.13;;;;;;;5.35;98.94;98081.38;8366474;28;20071;-82
2021/12/02 01:57:31;;;;;;;4.68;2.25;;;;;;;5.35;99.52;98091.50;8370282;28;20049;-82
2021/12/02 02:01:34;;;;;;;12.48;2.90;;;;;;;5.34;99.98;98084.38;8396453;28;20052;-83
2021/12/02 02:05:35;;;;;;;4.13;2.17;;;;;;;5.31;99.66;98083.00;8331067;28;20133;-82
2021/12/02 02:09:35;;;;;;;4.47;2.20;;;;;;;5.26;99.80;98091.13;8369372;28;20041;-82
2021/12/02 02:13:35;;;;;;;4.88;2.20;;;;;;;5.22;99.77;98093.56;8357243;28;20123;-81
2021/12/02 02:17:47;;;;;;;4.63;2.42;;;;;;;5.20;100.00;98086.69;8369210;28;20120;-82
2021/12/02 02:21:47;;;;;;;5.90;2.20;;;;;;;5.14;100.00;98083.09;8374042;28;20036;-82
2021/12/02 02:25:48;;;;;;;9.15;2.80;;;;;;;5.10;100.00;98081.16;8367151;28;20510;-82
2021/12/02 02:29:50;;;;;;;7.88;3.15;;;;;;;5.07;100.00;98085.22;8369791;28;20048;-83
2021/12/02 02:33:53;;;;;;;6.50;2.40;;;;;;;5.06;100.00;98088.19;8379464;28;20043;-81
2021/12/02 02:37:53;;;;;;;7.88;3.10;;;;;;;4.93;100.00;98094.88;8369730;28;20047;-81
2021/12/02 02:41:58;;;;;;;3.65;1.92;;;;;;;4.84;100.00;98089.03;8355749;28;20036;-81
2021/12/02 02:45:59;;;;;;;7.90;2.20;;;;;;;4.82;100.00;98095.81;8372694;28;20040;-81
2021/12/02 02:49:59;;;;;;;3.75;2.20;;;;;;;4.79;100.00;98102.63;8378076;28;20044;-83
2021/12/02 02:54:04;;;;;;;8.25;1.75;;;;;;;4.78;100.00;98098.25;8354833;28;20045;-83
2021/12/02 02:58:15;;;;;;;6.45;1.90;;;;;;;4.70;100.00;98090.50;8369442;28;20048;-82
2021/12/02 03:02:24;;;;;;;3.22;1.40;;;;;;;4.62;100.00;98093.69;8356269;28;20100;-81
2021/12/02 03:10:57;;;;;;;5.18;1.85;;;;;;;4.52;100.00;98081.56;8376008;28;20037;-82
2021/12/02 03:19:01;;;;;;;7.30;2.08;;;;;;;4.45;100.00;98064.53;8349451;28;20139;-83
2021/12/02 03:23:02;;;;;;;5.60;1.30;;;;;;;4.48;100.00;98065.94;8371083;28;20059;-83
2021/12/02 03:27:03;;;;;;;4.40;1.83;;;;;;;4.56;100.00;98081.88;8335570;28;20094;-83
2021/12/02 03:31:03;;;;;;;3.67;1.77;;;;;;;4.62;100.00;98075.41;8366298;28;20513;-83
2021/12/02 03:35:06;;;;;;;5.80;1.80;;;;;;;4.62;100.00;98077.31;8350620;28;20048;-82
2021/12/02 03:39:08;;;;;;;4.57;1.60;;;;;;;4.51;100.00;98082.63;8371087;28;20057;-82
2021/12/02 03:43:09;;;;;;;4.63;1.33;;;;;;;4.40;100.00;98099.09;8362186;28;20041;-82
2021/12/02 03:47:09;;;;;;;7.43;1.23;;;;;;;4.28;100.00;98088.31;8376593;28;20510;-81
2021/12/02 03:51:11;;;;;;;4.03;1.50;;;;;;;4.23;100.00;98094.53;8376672;28;20045;-81
2021/12/02 03:55:11;;;;;;;5.78;1.13;;;;;;;4.13;100.00;98096.25;8384470;28;20041;-81
2021/12/02 03:59:12;;;;;;;7.53;1.00;;;;;;;3.88;100.00;98090.19;8381039;28;20045;-80
2021/12/02 04:03:13;;;;;;;9.15;1.10;;;;;;;3.68;100.00;98086.31;8375517;28;20120;-81
2021/12/02 04:07:13;;;;;;;3.33;0.75;;;;;;;3.59;100.00;98091.34;8380004;28;20044;-81
2021/12/02 04:15:28;;;;;;;1.90;0.50;;;;;;;3.50;100.00;98092.81;8358615;28;20041;-81
2021/12/02 04:19:29;;;;;;;4.25;0.68;;;;;;;3.51;100.00;98081.69;8367979;28;20041;-82
2021/12/02 04:23:29;;;;;;;4.40;1.17;;;;;;;3.60;100.00;98079.38;8375453;28;20098;-82
2021/12/02 04:27:30;;;;;;;4.28;1.00;;;;;;;3.68;100.00;98080.84;8350480;28;20041;-82
2021/12/02 04:31:30;;;;;;;7.93;1.10;;;;;;;3.68;100.00;98078.94;8373708;28;20041;-80
2021/12/02 04:35:31;;;;;;;3.33;0.70;;;;;;;3.72;100.00;98079.28;8381577;28;20157;-81
2021/12/02 04:39:31;;;;;;;2.65;0.85;;;;;;;3.74;100.00;98071.69;8357169;28;20041;-81
2021/12/02 04:43:32;;;;;;;4.57;1.00;;;;;;;3.76;100.00;98075.00;8377607;28;20063;-82
2021/12/02 04:47:32;;;;;;;2.45;0.82;;;;;;;3.73;100.00;98073.59;8376233;28;20048;-82
2021/12/02 04:51:33;;;;;;;4.78;0.85;;;;;;;3.75;100.00;98073.31;8381620;28;20048;-82
2021/12/02 04:55:34;;;;;;;4.60;0.93;;;;;;;3.73;100.00;98061.88;8375262;28;20049;-82
2021/12/02 04:59:34;;;;;;;4.53;1.02;;;;;;;3.75;100.00;98068.72;8365305;28;20519;-83
2021/12/02 05:03:35;;;;;;;5.50;1.30;;;;;;;3.74;100.00;98074.41;8352175;28;20060;-83
2021/12/02 05:07:35;;;;;;;3.05;0.82;;;;;;;3.72;100.00;98068.38;8372250;28;20509;-82
2021/12/02 05:11:38;;;;;;;2.42;0.65;;;;;;;3.74;100.00;98072.50;8369914;28;20455;-81
2021/12/02 05:15:38;;;;;;;6.00;1.20;;;;;;;3.76;100.00;98078.53;8370762;28;20036;-82
2021/12/02 05:19:39;;;;;;;2.80;0.63;;;;;;;3.78;100.00;98081.84;8373485;28;20079;-82
2021/12/02 05:23:39;;;;;;;4.88;0.90;;;;;;;3.80;100.00;98084.31;8363059;28;20041;-82
2021/12/02 05:27:40;;;;;;;2.67;0.77;;;;;;;3.79;100.00;98090.84;8344278;28;20496;-82
2021/12/02 05:31:40;;;;;;;2.55;1.02;;;;;;;3.69;100.00;98090.66;8371133;28;20048;-82
2021/12/02 05:35:41;;;;;;;4.07;0.80;;;;;;;3.57;100.00;98082.56;8375402;28;20153;-82
2021/12/02 05:39:41;;;;;;;3.28;1.52;;;;;;;3.52;100.00;98077.88;8357392;28;20036;-81
2021/12/02 05:43:42;;;;;;;6.60;1.60;;;;;;;3.53;100.00;98073.25;8372174;28;20040;-81
2021/12/02 05:47:42;;;;;;;2.03;0.70;;;;;;;3.54;100.00;98072.19;8363366;28;20470;-82
2021/12/02 05:51:44;;;;;;;4.70;0.70;;;;;;;3.56;100.00;98070.03;8360641;28;20667;-82
2021/12/02 05:55:45;;;;;;;3.10;1.20;;;;;;;3.49;100.00;98074.84;8363290;28;20279;-82
2021/12/02 05:59:45;;;;;;;3.05;0.70;;;;;;;3.38;100.00;98066.47;8377932;28;20047;-83
2021/12/02 06:03:46;;;;;;;6.50;0.82;;;;;;;3.38;100.00;98069.19;8372927;28;20092;-81
2021/12/02 06:07:50;;;;;;;5.05;0.65;;;;;;;3.36;100.00;98071.38;8383472;28;20047;-83
2021/12/02 06:11:50;;;;;;;4.38;0.70;;;;;;;3.37;100.00;98072.19;8371494;28;20663;-82
2021/12/02 06:15:51;;;;;;;3.70;1.07;;;;;;;3.32;100.00;98081.06;8367285;28;20095;-81
2021/12/02 06:19:51;;;;;;;7.95;1.25;;;;;;;3.36;100.00;98092.28;8348090;28;20325;-80
2021/12/02 06:23:52;;;;;;;8.02;1.27;;;;;;;3.35;100.00;98091.47;8339470;28;20502;-81
2021/12/02 06:27:53;;;;;;;4.20;1.10;;;;;;;3.39;100.00;98098.09;8353961;28;20041;-81
2021/12/02 06:31:54;;;;;;;5.10;1.00;;;;;;;3.38;100.00;98101.88;8355137;28;20485;-81
2021/12/02 06:35:54;;;;;;;9.05;1.27;;;;;;;3.28;100.00;98096.25;8348116;28;20130;-80
2021/12/02 06:39:54;;;;;;;5.65;1.73;;;;;;;3.27;100.00;98110.09;8362542;28;20280;-81
2021/12/02 06:43:55;;;;;;;4.83;1.13;;;;;;;3.24;100.00;98111.41;8368318;28;20393;-82
2021/12/02 06:47:59;;;;;;;4.03;1.10;;;;;;;3.18;100.00;98106.94;8347370;28;21038;-81
2021/12/02 06:52:00;;;;;;;11.43;1.52;;;;;;;3.17;100.00;98105.28;8350753;28;20048;-80
2021/12/02 06:56:01;;;;;;;7.07;1.40;;;;;;;3.22;100.00;98118.19;8366732;28;20056;-81
2021/12/02 07:00:08;;;;;;;9.40;1.55;;;;;;;3.24;100.00;98116.84;8376164;28;20048;-79
2021/12/02 07:04:09;;;;;;;7.65;1.83;;;;;;;3.25;100.00;98123.16;8354036;28;20041;-82
2021/12/02 07:08:09;;;;;;;8.10;1.60;;;;;;;3.24;100.00;98121.47;8364897;28;20033;-81
2021/12/02 07:12:10;;;;;;;11.02;1.60;;;;;;;3.25;100.00;98134.03;8335176;28;20086;-80
2021/12/02 07:16:10;;;;;;;6.60;1.63;;;;;;;3.21;100.00;98130.94;8358590;28;20048;-82
2021/12/02 07:20:15;;;;;;;7.43;1.48;;;;;;;3.24;100.00;98137.81;8362190;28;20081;-82
2021/12/02 07:24:19;;;;;;;7.65;2.10;;;;;;;3.09;100.00;98128.28;8365129;28;20075;-80
2021/12/02 07:28:21;;;;;;;7.68;2.50;;;;;;;3.10;100.00;98129.13;8346630;28;20092;-84
2021/12/02 07:32:25;;;;;;;10.82;2.25;;;;;;;3.12;100.00;98135.97;8353028;28;20052;-83
2021/12/02 07:36:26;;;;;;;11.68;2.53;;;;;;;3.18;100.00;98140.44;8370730;28;20132;-82
2021/12/02 07:40:29;;;;;;;8.95;2.47;;;;;;;3.22;100.00;98151.69;8345713;28;20395;-81
2021/12/02 07:44:33;;;;;;;9.73;3.85;;;;;;;3.29;100.00;98155.06;8357459;28;20179;-81
2021/12/02 07:48:36;;;;;;;11.63;2.47;;;;;;;3.36;100.00;98161.22;8342540;28;20592;-80
2021/12/02 07:52:44;;;;;;;6.78;2.35;;;;;;;3.37;100.00;98164.75;8328385;28;20485;-82
2021/12/02 07:56:47;;;;;;;5.60;2.53;;;;;;;3.38;100.00;98171.84;8345661;28;20413;-81
2021/12/02 08:00:49;;;;;;;8.27;2.28;;;;;;;3.40;100.00;98169.72;8352653;28;20076;-81
2021/12/02 08:04:49;;;;;;;9.13;2.80;;;;;;;3.51;100.00;98182.44;8338497;28;20089;-81
2021/12/02 08:08:50;;;;;;;8.07;2.10;;;;;;;3.55;100.00;98186.31;8351116;28;20034;-81
2021/12/02 08:12:51;;;;;;;7.35;2.70;;;;;;;3.62;100.00;98197.88;8377295;28;20687;-81
2021/12/02 08:16:52;;;;;;;9.60;2.28;;;;;;;3.67;100.00;98199.06;8371466;28;20036;-80
2021/12/02 08:20:53;;;;;;;5.40;2.03;;;;;;;3.62;100.00;98203.34;8350738;28;20044;-81
2021/12/02 08:24:54;;;;;;;8.98;2.30;;;;;;;3.70;100.00;98206.75;8375645;28;20032;-81
2021/12/02 08:28:54;;;;;;;5.32;2.17;;;;;;;3.77;100.00;98201.97;8358413;28;20736;-82
2021/12/02 08:32:57;;;;;;;11.18;2.90;;;;;;;3.85;100.00;98199.66;8373987;28;21678;-81
2021/12/02 08:36:58;;;;;;;7.93;2.95;;;;;;;3.97;100.00;98205.06;8337702;28;20045;-82
2021/12/02 08:41:00;;;;;;;8.40;2.67;;;;;;;4.00;100.00;98210.00;8362366;28;20052;-82
2021/12/02 08:45:01;;;;;;;5.35;1.63;;;;;;;4.00;100.00;98206.47;8353426;28;20045;-82
2021/12/02 08:49:03;;;;;;;5.80;1.80;;;;;;;3.98;100.00;98203.97;8373265;28;20041;-82
2021/12/02 08:53:05;;;;;;;;;;;;;;;3.99;100.00;98213.81;8357207;28;20458;-82
2021/12/02 08:57:06;;;;;;;7.82;2.72;;;;;;;4.07;100.00;98213.38;8373218;28;19928;-80
2021/12/02 09:01:07;;;;;;;4.88;2.20;;;;;;;4.18;100.00;98210.84;8336985;28;20060;-81
2021/12/02 09:05:08;;;;;;;3.80;1.90;;;;;;;4.18;100.00;98219.84;8355921;28;20048;-81
2021/12/02 09:09:10;;;;;;;6.13;2.28;;;;;;;4.29;100.00;98227.13;8335176;28;20045;-82
2021/12/02 09:13:10;;;;;;;6.07;2.65;;;;;;;4.42;100.00;98231.41;8339304;28;20513;-84
2021/12/02 09:17:11;;;;;;;4.50;2.50;;;;;;;4.43;100.00;98230.34;8382776;28;20044;-84
2021/12/02 09:21:12;;;;;;;6.28;2.35;;;;;;;4.42;100.00;98234.16;8367727;28;20087;-83
2021/12/02 09:25:14;;;;;;;10.57;2.83;;;;;;;4.48;100.00;98240.50;8365160;28;20512;-83
2021/12/02 09:29:16;;;;;;;6.13;2.53;;;;;;;4.64;100.00;98249.75;8370289;28;20169;-83
2021/12/02 09:33:17;;;;;;;7.63;2.72;;;;;;;4.69;100.00;98253.38;8349417;28;20548;-83
2021/12/02 09:37:18;;;;;;;7.57;2.28;;;;;;;4.72;100.00;98249.31;8379867;28;20040;-83
2021/12/02 09:41:19;;;;;;;8.60;2.78;;;;;;;4.83;100.00;98253.03;8355768;28;20122;-84
2021/12/02 09:45:19;;;;;;;5.67;2.00;;;;;;;4.89;100.00;98262.97;8380457;28;20056;-84
2021/12/02 09:49:21;;;;;;;6.78;2.13;;;;;;;4.96;100.00;98258.97;8373862;28;20276;-83
2021/12/02 09:57:58;;;;;;;7.57;2.65;;;;;;;5.00;100.00;98260.13;8383647;28;20079;-83
2021/12/02 10:02:02;;;;;;;9.65;2.38;;;;;;;5.10;100.00;98247.69;8356885;28;20531;-84
2021/12/02 10:06:09;;;;;;;6.88;2.30;;;;;;;5.13;100.00;98252.66;8353451;28;20068;-84
2021/12/02 10:10:15;;;;;;;5.32;2.10;;;;;;;5.14;100.00;98252.38;8375985;28;20037;-84
2021/12/02 10:14:45;;;;;;;5.63;2.45;;;;;;;5.02;100.00;98260.69;8359635;28;20635;-83
2021/12/02 10:19:10;;;;;;;5.00;2.03;;;;;;;5.09;100.00;98249.59;8371964;28;20129;-84
2021/12/02 10:23:33;;;;;;;7.35;3.40;;;;;;;5.23;100.00;98242.69;8372619;28;20090;-85
2021/12/02 10:27:34;;;;;;;13.00;5.18;;;;;;;5.32;100.00;98240.31;8350700;28;20047;-83
2021/12/02 10:31:37;;;;;;;6.70;2.20;;;;;;;5.39;100.00;98245.63;8365506;28;20044;-84
2021/12/02 10:35:43;;;;;;;4.07;1.67;;;;;;;5.56;100.00;98242.78;8373593;28;20477;-83
2021/12/02 10:40:03;;;;;;;2.72;1.23;;;;;;;5.57;100.00;98241.72;8347852;28;20052;-84
2021/12/02 10:44:07;;;;;;;6.28;1.60;;;;;;;5.60;100.00;98235.75;8384455;28;20055;-83
2021/12/02 10:48:08;;;;;;;2.17;1.20;;;;;;;5.59;100.00;98239.53;8362608;28;20536;-83
2021/12/02 10:52:22;;;;;;;4.10;1.37;;;;;;;5.67;100.00;98239.09;8369438;28;20041;-83
2021/12/02 10:56:36;;;;;;;3.53;1.10;;;;;;;5.64;100.00;98240.44;8363898;28;20793;-84
2021/12/02 11:00:41;;;;;;;3.20;0.98;;;;;;;5.60;100.00;98249.41;8360182;28;20084;-84
2021/12/02 11:04:45;;;;;;;1.73;0.90;;;;;;;5.59;100.00;98239.53;8345232;28;20040;-84
2021/12/02 11:08:45;;;;;;;2.00;1.00;;;;;;;5.49;100.00;98241.06;8332418;28;20065;-83
2021/12/02 11:12:48;;;;;;;3.00;1.07;;;;;;;5.30;96.78;98247.13;8367669;28;20032;-81
2021/12/02 11:16:49;;;;;;;3.80;0.68;;;;;;;5.01;95.94;98253.56;8368060;28;20285;-83
2021/12/02 11:20:57;;;;;;;2.20;0.98;;;;;;;4.71;97.53;98255.88;8337676;28;20037;-84
2021/12/02 11:24:59;;;;;;;2.22;0.90;;;;;;;4.34;98.44;98261.81;8376257;28;20040;-83
2021/12/02 11:28:59;;;;;;;7.27;1.00;;;;;;;4.11;100.00;98257.34;8365958;28;20469;-82
2021/12/02 11:33:04;;;;;;;6.00;1.33;;;;;;;4.03;100.00;98249.56;8385725;28;20048;-83
2021/12/02 11:37:05;;;;;;;4.45;1.15;;;;;;;3.97;100.00;98243.22;8376376;28;20097;-83
2021/12/02 11:41:06;;;;;;;4.82;1.00;;;;;;;3.79;100.00;98240.69;8358314;28;20099;-83
2021/12/02 11:45:09;;;;;;;2.97;1.10;;;;;;;3.65;100.00;98246.44;8359333;28;20049;-84
2021/12/02 11:49:10;;;;;;;2.45;1.20;;;;;;;3.66;100.00;98250.00;8373356;28;20073;-82
2021/12/02 11:53:11;;;;;;;4.45;1.38;;;;;;;3.65;100.00;98245.59;8376759;28;20456;-85
2021/12/02 11:57:12;;;;;;;3.80;1.30;;;;;;;3.60;100.00;98259.16;8350358;28;20123;-83
2021/12/02 12:01:22;;;;;;;5.40;1.70;;;;;;;3.53;100.00;98264.72;8367997;28;20040;-84
2021/12/02 12:05:31;;;;;;;3.38;1.40;;;;;;;3.56;100.00;98263.41;8366832;28;20083;-84
2021/12/02 12:09:31;;;;;;;5.75;1.17;;;;;;;3.60;100.00;98261.88;8361482;28;20037;-85
2021/12/02 12:13:32;;;;;;;4.13;1.10;;;;;;;3.65;100.00;98267.41;8380522;28;20044;-85
2021/12/02 12:17:40;;;;;;;4.03;1.10;;;;;;;3.66;100.00;98271.78;8367603;28;20540;-84
2021/12/02 12:21:44;;;;;;;4.10;1.20;;;;;;;3.73;100.00;98271.66;8372011;28;20032;-84
2021/12/02 12:25:45;;;;;;;3.97;1.55;;;;;;;3.77;100.00;98283.69;8364052;28;20064;-84
2021/12/02 12:30:00;;;;;;;2.35;1.13;;;;;;;3.84;100.00;98289.84;8371595;28;20045;-84
2021/12/02 12:34:36;;;;;;;2.38;1.20;;;;;;;4.20;100.00;98282.31;8363482;28;20045;-84
2021/12/02 12:38:40;;;;;;;3.17;1.10;;;;;;;4.46;100.00;98287.13;8386095;28;20076;-82
2021/12/02 12:42:50;;;;;;;3.83;0.77;;;;;;;4.93;100.00;98289.47;8357192;28;20037;-84
2021/12/02 12:46:56;;;;;;;1.75;1.00;;;;;;;5.16;97.20;98290.38;8335978;28;20050;-84
2021/12/02 12:51:35;;;;;;;2.78;0.82;;;;;;;5.01;95.72;98294.53;8374701;28;20111;-84
2021/12/02 12:55:39;;;;;;;2.47;1.10;;;;;;;4.94;96.11;98282.97;8272821;28;20530;-84
2021/12/02 12:59:48;;;;;;;3.80;0.82;;;;;;;4.88;95.66;98289.44;8313099;28;20052;-86
2021/12/02 13:04:17;;;;;;;2.28;0.90;;;;;;;5.08;95.41;98286.16;8370477;28;20448;-82
2021/12/02 13:08:31;;;;;;;2.38;0.68;;;;;;;5.13;94.64;98290.88;8357662;28;20044;-82
2021/12/02 13:12:54;;;;;;;4.78;1.30;;;;;;;5.07;94.43;98294.59;8371408;28;20052;-83
2021/12/02 13:16:57;;;;;;;2.42;1.33;;;;;;;4.95;95.01;98306.44;8381068;28;20481;-83
2021/12/02 13:20:58;;;;;;;;;;;;;;;4.84;95.26;98318.28;8381245;28;20036;-83
2021/12/02 13:24:59;;;;;;;3.72;0.80;;;;;;;4.66;92.73;98322.09;8353830;28;19918;-82
2021/12/02 13:29:05;;;;;;;1.75;0.85;;;;;;;4.25;93.54;98323.28;8368768;28;20493;-82
2021/12/02 13:33:05;;;;;;;2.17;1.08;;;;;;;4.03;95.09;98334.91;8353578;28;20041;-82
2021/12/02 13:37:09;;;;;;;2.15;1.13;;;;;;;3.93;96.37;98342.88;8340718;28;20036;-81
2021/12/02 13:41:18;;;;;;;3.45;1.58;;;;;;;3.86;95.46;98348.47;8372686;28;20496;-83
2021/12/02 13:45:44;;;;;;;2.70;1.40;;;;;;;3.69;97.14;98352.19;8375559;28;20127;-81
2021/12/02 13:49:50;;;;;;;3.13;1.85;;;;;;;3.62;98.38;98353.16;8362102;28;20485;-81
2021/12/02 13:53:51;;;;;;;5.72;1.77;;;;;;;3.50;98.01;98352.34;8374417;28;20094;-82
2021/12/02 13:58:05;;;;;;;3.55;1.80;;;;;;;3.41;97.34;98353.78;8381772;28;20049;-81
2021/12/02 14:02:06;;;;;;;4.03;1.90;;;;;;;3.32;97.94;98352.50;8372010;28;20149;-81
2021/12/02 14:06:08;;;;;;;4.20;1.80;;;;;;;3.53;98.84;98362.75;8344424;28;20045;-82
2021/12/02 14:10:12;;;;;;;3.63;1.90;;;;;;;3.61;98.56;98359.69;8371913;28;20121;-81
2021/12/02 14:14:18;;;;;;;7.30;2.40;;;;;;;3.60;97.96;98368.94;8358939;28;20403;-80
2021/12/02 14:18:26;;;;;;;7.55;2.22;;;;;;;3.49;98.06;98374.38;8335901;28;20052;-81
2021/12/02 14:22:31;;;;;;;4.43;2.10;;;;;;;3.45;98.44;98384.94;8358901;28;20088;-82
2021/12/02 14:26:31;;;;;;;4.10;2.17;;;;;;;3.40;98.37;98398.44;8367325;28;20631;-80
2021/12/02 14:30:40;;;;;;;2.53;1.45;;;;;;;3.40;94.20;98403.88;8377667;28;20048;-82
2021/12/02 14:34:40;;;;;;;3.42;1.65;;;;;;;3.35;93.17;98410.03;8367999;28;20135;-83
2021/12/02 14:38:46;;;;;;;5.72;1.58;;;;;;;3.32;91.71;98420.56;8368789;28;20493;-83
2021/12/02 14:42:46;;;;;;;5.13;1.55;;;;;;;3.21;91.14;98430.38;8360934;28;20098;-82
2021/12/02 14:46:48;;;;;;;2.92;1.45;;;;;;;3.09;91.21;98429.53;8371904;28;20489;-81
2021/12/02 14:51:12;;;;;;;6.97;1.88;;;;;;;3.02;91.57;98434.28;8378473;28;20032;-83
2021/12/02 14:55:13;;;;;;;4.07;1.42;;;;;;;2.95;91.44;98442.56;8370518;28;20051;-82
2021/12/02 14:59:23;;;;;;;3.05;1.63;;;;;;;2.83;91.92;98453.41;8383879;28;20378;-82
2021/12/02 15:03:28;;;;;;;4.30;1.20;;;;;;;2.73;92.64;98456.69;8356936;28;20056;-82
2021/12/02 15:07:32;;;;;;;2.45;1.40;;;;;;;2.56;93.77;98465.72;8367013;28;20424;-83
2021/12/02 15:11:32;;;;;;;4.38;1.63;;;;;;;2.43;94.66;98474.91;8379889;28;20044;-82
2021/12/02 15:15:40;;;;;;;4.95;1.88;;;;;;;2.34;96.21;98493.41;8388040;28;20049;-82
2021/12/02 15:19:50;;;;;;;3.65;1.83;;;;;;;2.32;96.48;98505.56;8391426;28;20093;-82
2021/12/02 15:23:51;;;;;;;5.65;1.80;;;;;;;2.36;96.24;98504.09;8363338;28;20045;-82
2021/12/02 15:28:22;;;;;;;4.13;1.77;;;;;;;2.39;96.15;98514.50;8364471;28;20092;-82
2021/12/02 15:32:22;;;;;;;3.45;1.77;;;;;;;2.44;96.13;98514.63;8361570;28;20475;-81
2021/12/02 15:36:28;;;;;;;7.15;2.00;;;;;;;2.49;95.63;98515.59;8366054;28;20049;-82
2021/12/02 15:40:31;;;;;;;5.78;2.20;;;;;;;2.50;95.90;98535.47;8383009;28;20127;-82
2021/12/02 15:44:33;;;;;;;4.53;2.20;;;;;;;2.46;97.92;98536.97;8379311;28;20044;-80
2021/12/02 15:48:33;;;;;;;4.93;1.92;;;;;;;2.43;98.93;98551.03;8373464;28;20044;-82
2021/12/02 15:52:35;;;;;;;3.58;1.77;;;;;;;2.41;100.00;98555.84;8388417;28;20850;-82
2021/12/02 15:57:03;;;;;;;5.22;2.20;;;;;;;2.35;100.00;98570.38;8367965;28;20052;-82
2021/12/02 16:01:05;;;;;;;6.63;2.42;;;;;;;2.32;100.00;98579.84;8369550;28;20065;-81
2021/12/02 16:05:11;;;;;;;7.32;3.58;;;;;;;2.29;100.00;98577.56;8370038;28;20779;-82
2021/12/02 16:09:40;;;;;;;4.60;2.70;;;;;;;2.35;100.00;98600.28;8351899;28;20037;-82
2021/12/02 16:13:41;;;;;;;7.90;3.05;;;;;;;2.41;100.00;98602.06;8367416;28;20155;-82
2021/12/02 16:17:42;;;;;;;5.80;2.58;;;;;;;2.51;100.00;98611.38;8354491;28;20048;-83
2021/12/02 16:21:43;;;;;;;7.45;2.45;;;;;;;2.58;100.00;98615.91;8382809;28;20040;-82
2021/12/02 16:25:43;;;;;;;8.20;2.45;;;;;;;2.63;100.00;98629.66;8387050;28;20045;-82
2021/12/02 16:29:44;;;;;;;7.88;2.42;;;;;;;2.62;100.00;98641.63;8367003;28;20036;-83
2021/12/02 16:33:45;;;;;;;6.00;2.50;;;;;;;2.62;100.00;98652.50;8369011;28;20736;-82
2021/12/02 16:37:45;;;;;;;4.40;2.50;;;;;;;2.64;100.00;98662.06;8380948;28;20040;-82
2021/12/02 16:41:45;;;;;;;4.07;2.20;;;;;;;2.65;99.01;98673.78;8399386;28;20041;-83
2021/12/02 16:45:51;;;;;;;3.53;2.17;;;;;;;2.61;98.47;98678.81;8395017;28;20461;-82
2021/12/02 16:49:51;;;;;;;4.43;2.05;;;;;;;2.67;97.71;98677.91;8379317;28;20043;-82
2021/12/02 16:53:53;;;;;;;4.88;2.28;;;;;;;2.64;96.63;98681.09;8387151;28;20044;-82
2021/12/02 16:57:55;;;;;;;5.10;2.47;;;;;;;2.68;97.47;98684.22;8411422;28;20049;-83
2021/12/02 17:01:56;;;;;;;5.30;2.30;;;;;;;2.67;97.76;98688.81;8405131;28;20095;-83
2021/12/02 17:05:56;;;;;;;6.65;2.05;;;;;;;2.71;94.79;98695.47;8374854;28;20048;-81
2021/12/02 17:09:57;;;;;;;5.80;2.78;;;;;;;2.66;95.70;98703.47;8370544;28;20041;-81
2021/12/02 17:13:58;;;;;;;3.55;1.65;;;;;;;2.72;93.27;98707.19;8386691;28;20060;-81
2021/12/02 17:18:01;;;;;;;4.68;1.80;;;;;;;2.65;93.73;98712.69;8388082;28;20092;-81
2021/12/02 17:22:01;;;;;;;3.53;1.95;;;;;;;2.54;94.15;98716.16;8376081;28;20045;-82
2021/12/02 17:26:02;;;;;;;2.95;1.65;;;;;;;2.45;94.51;98717.50;8346353;28;20048;-81
2021/12/02 17:30:07;;;;;;;6.25;2.08;;;;;;;2.40;95.54;98731.75;8376008;28;20044;-80
2021/12/02 17:34:08;;;;;;;3.10;1.75;;;;;;;2.35;95.34;98747.94;8344607;28;20041;-82
2021/12/02 17:38:09;;;;;;;3.58;1.55;;;;;;;2.33;95.79;98749.19;8391695;28;20102;-82
2021/12/02 17:42:12;;;;;;;6.13;2.10;;;;;;;2.33;95.64;98757.34;8375973;28;20033;-81
2021/12/02 17:46:15;;;;;;;3.88;2.13;;;;;;;2.26;96.40;98749.22;8385947;28;20402;-82
2021/12/02 17:50:20;;;;;;;5.45;1.85;;;;;;;2.29;96.97;98756.97;8378473;28;20120;-81
2021/12/02 17:54:26;;;;;;;3.53;1.67;;;;;;;2.31;97.70;98762.16;8383165;28;20074;-82
2021/12/02 17:58:28;;;;;;;3.38;1.50;;;;;;;2.29;97.78;98767.84;8398591;28;20064;-82
2021/12/02 18:02:30;;;;;;;2.90;1.70;;;;;;;2.26;98.92;98785.44;8408277;28;20463;-82
2021/12/02 18:06:32;;;;;;;5.00;1.88;;;;;;;2.25;99.10;98791.06;8382183;28;20082;-83
2021/12/02 18:10:33;;;;;;;5.50;1.73;;;;;;;2.29;99.69;98789.59;8366926;28;20114;-82
2021/12/02 18:14:35;;;;;;;6.10;2.90;;;;;;;2.32;99.93;98791.00;8389709;28;20048;-81
2021/12/02 18:18:39;;;;;;;;;;;;;;;2.31;100.00;98800.22;8356343;28;20131;-81
2021/12/02 18:22:39;;;;;;;4.28;2.10;;;;;;;2.31;99.73;98801.06;8380891;28;20057;-81
2021/12/02 18:26:39;;;;;;;3.75;1.80;;;;;;;2.33;100.00;98811.72;8374135;28;20098;-83
2021/12/02 18:30:40;;;;;;;4.28;1.73;;;;;;;2.38;100.00;98814.59;8387609;28;20047;-82
2021/12/02 18:34:41;;;;;;;3.88;1.65;;;;;;;2.40;100.00;98826.09;8369096;28;20048;-82
2021/12/02 18:38:41;;;;;;;3.72;1.73;;;;;;;2.41;100.00;98820.44;8386564;28;20047;-82
2021/12/02 18:42:42;;;;;;;4.15;2.10;;;;;;;2.44;100.00;98825.44;8370457;28;20047;-81
2021/12/02 18:46:42;;;;;;;5.20;2.22;;;;;;;2.47;100.00;98833.16;8360905;28;20040;-82
2021/12/02 18:50:44;;;;;;;5.88;2.25;;;;;;;2.49;100.00;98832.91;8397879;28;20040;-82
2021/12/02 18:54:44;;;;;;;8.07;2.58;;;;;;;2.49;100.00;98836.47;8375442;28;20051;-81
2021/12/02 18:58:45;;;;;;;6.05;2.50;;;;;;;2.54;100.00;98843.97;8372327;28;20051;-81
2021/12/02 19:02:46;;;;;;;10.27;3.08;;;;;;;2.54;100.00;98834.97;8360432;28;20048;-81
2021/12/02 19:06:50;;;;;;;6.68;3.40;;;;;;;2.54;100.00;98848.59;8359178;28;20370;-81
2021/12/02 19:26:09;;;;;;;7.30;3.92;;;;;;;2.54;100.00;98879.31;8390805;28;20048;-82
2021/12/02 19:28:10;;;;;;;8.35;3.97;;;;;;;2.62;100.00;98889.94;8387306;28;20105;-81
2021/12/02 19:32:11;;;;;;;7.18;4.05;;;;;;;2.65;100.00;98892.22;8360095;28;20140;-81
2021/12/02 19:36:14;;;;;;;8.70;4.22;;;;;;;2.61;100.00;98901.84;8386516;28;20045;-81
2021/12/02 19:40:16;;;;;;;9.75;4.72;;;;;;;2.58;100.00;98907.72;8372146;28;20075;-81
2021/12/02 19:44:17;;;;;;;7.97;3.50;;;;;;;2.56;100.00;98909.00;8354530;28;20051;-82
2021/12/02 19:48:17;;;;;;;8.05;3.05;;;;;;;2.59;100.00;98912.13;8381471;28;20486;-83